Avenel, New Jersey
Current Conditions -  °F | °C
As of 7:35 AM on Wednesday 26 Nov 2014 (Local Time) from KLDJ Reporting Station
Light Rain Light Rain  
Wind Chill: 40°   Ceiling: 3300
Heat Index: 46°   Visibility: 7mi
Dew Point: 38°   Wind: 12mph
Humidity: 75%   Direction: 50°NE
Pressure: 30.16"   Gusts: NA
Location:  40.58°N, 74.28°W
Report Text: KLDJ 261235Z AUTO 05010KT 7SM -RA OVC033 08/04 A3016 RMK AO2 P0004 T00760035
Loading
Personal Weather Stations






























Interactive Weather Map New forecast layout! Learn more

10-Day Weather Forecast

Advertisements
Track Severe Weather on mobile